Strona główna
METAR-TAF:

METAR-TAF

Lotnisko :

Platforma wiertnicza

J6-a, Holandia

Szerokość geograficzna: 53-49-27N, Długość geograficzna: 2-56-43E, wysokość: 34 m

Aktualna obserwacja pogody

Raport powstał 23 minut temu, godzina 02:25 UTC
Wiatr 27 kt od wschodnio-południowy wschód
Temperatura 21°C
Wilgotność 78%
Ciśnienie 1014 hPa
Widzialność 10 km lub więcej

METAR: EHJA 240225Z AUTO 11027KT 9999 NSC 21/17 Q1014 W///H///

czas: 04:48 (02:48 UTC)


TAF: brakujący

Obserwacja i prognoza pogody dla ponad 4000 lotnisk (raport METAR i TAF).

Dostępne stacje oznaczono żółtymi i czerwonymi punktami na mapie.

Najedź kursorem aby zobaczyć nazwę stacji.

Kliknij aby zobaczyć obserwacje i prognozy pogody.

Aby zmienić mapę: kliknij na zielony przycisk z czarnym krzyżykiem, aby powiększyć; na zielony przycisk z myślnikiem, aby pomniejszyć; na zielone strzałki, aby przejść do map sąsiednich.


METAR-TAF: